createdAt,value
2022-11-20T00:01:17.376Z,-2.80
2022-11-20T00:03:44.354Z,-2.83
2022-11-20T00:06:13.516Z,-2.82
2022-11-20T00:08:39.903Z,-2.91
2022-11-20T00:11:15.542Z,-2.94
2022-11-20T00:13:46.536Z,-2.95
2022-11-20T00:16:16.981Z,-2.93
2022-11-20T00:18:43.534Z,-2.96
2022-11-20T00:21:24.056Z,-2.97
2022-11-20T00:23:53.870Z,-3.02
2022-11-20T00:26:22.527Z,-3.02
2022-11-20T00:28:58.879Z,-3.02
2022-11-20T00:31:25.927Z,-3.06
2022-11-20T00:33:52.975Z,-3.05
2022-11-20T00:36:21.467Z,-3.07
2022-11-20T00:38:48.223Z,-3.06
2022-11-20T00:41:16.623Z,-3.03
2022-11-20T00:43:43.292Z,-3.09
2022-11-20T00:46:13.825Z,-3.15
2022-11-20T00:48:40.204Z,-3.11
2022-11-20T00:51:06.962Z,-3.12
2022-11-20T00:53:33.483Z,-3.09
2022-11-20T00:56:05.714Z,-3.12
2022-11-20T00:58:37.925Z,-3.14
2022-11-20T01:01:07.378Z,-3.11
2022-11-20T01:03:40.514Z,-3.18
2022-11-20T01:06:21.871Z,-3.19
2022-11-20T01:08:49.650Z,-3.19
2022-11-20T01:11:18.915Z,-3.21
2022-11-20T01:13:47.136Z,-3.19
2022-11-20T01:16:14.797Z,-3.24
2022-11-20T01:18:43.714Z,-3.26
2022-11-20T01:21:13.084Z,-3.25
2022-11-20T01:23:41.579Z,-3.22
2022-11-20T01:26:11.261Z,-3.24
2022-11-20T01:28:37.891Z,-3.31
2022-11-20T01:31:15.574Z,-3.34
2022-11-20T01:33:43.795Z,-3.27
2022-11-20T01:36:11.007Z,-3.31
2022-11-20T01:38:37.395Z,-3.28
2022-11-20T01:41:04.160Z,-3.29
2022-11-20T01:43:30.840Z,-3.33
2022-11-20T01:46:01.664Z,-3.35
2022-11-20T01:49:15.023Z,-3.37
2022-11-20T01:51:53.496Z,-3.34
2022-11-20T01:54:26.562Z,-3.34
2022-11-20T01:56:56.083Z,-3.36
2022-11-20T01:59:24.714Z,-3.35
2022-11-20T02:01:51.041Z,-3.31
2022-11-20T02:04:17.670Z,-3.33
2022-11-20T02:06:50.503Z,-3.31
2022-11-20T02:09:17.115Z,-3.32
2022-11-20T02:11:43.652Z,-3.35
2022-11-20T02:14:11.063Z,-3.46
2022-11-20T02:16:44.744Z,-3.52
2022-11-20T02:19:29.595Z,-3.49
2022-11-20T02:22:14.546Z,-3.50
2022-11-20T02:24:42.908Z,-3.49
2022-11-20T02:27:12.645Z,-3.53
2022-11-20T02:29:43.745Z,-3.57
2022-11-20T02:32:24.875Z,-3.54
2022-11-20T02:34:51.278Z,-3.60
2022-11-20T02:37:18.811Z,-3.60
2022-11-20T02:39:47.742Z,-3.65
2022-11-20T02:42:14.159Z,-3.66
2022-11-20T02:44:41.029Z,-3.69
2022-11-20T02:47:07.671Z,-3.67
2022-11-20T02:49:34.049Z,-3.75
2022-11-20T02:52:00.757Z,-3.75
2022-11-20T02:54:27.240Z,-3.83
2022-11-20T02:56:53.923Z,-3.79
2022-11-20T02:59:20.731Z,-3.82
2022-11-20T03:01:47.205Z,-3.87
2022-11-20T03:04:13.568Z,-3.91
2022-11-20T03:06:39.881Z,-3.89
2022-11-20T03:09:06.367Z,-3.86
2022-11-20T03:11:32.686Z,-3.79
2022-11-20T03:14:02.966Z,-3.77
2022-11-20T03:16:29.370Z,-3.74
2022-11-20T03:18:55.671Z,-3.73
2022-11-20T03:21:22.011Z,-3.77
2022-11-20T03:23:48.383Z,-3.71
2022-11-20T03:26:20.651Z,-3.75
2022-11-20T03:28:49.644Z,-3.72
2022-11-20T03:31:17.967Z,-3.74
2022-11-20T03:33:44.618Z,-3.69
2022-11-20T03:36:14.144Z,-3.59
2022-11-20T03:38:41.502Z,-3.64
2022-11-20T03:41:20.492Z,-3.65
2022-11-20T03:43:51.611Z,-3.55
2022-11-20T03:46:18.128Z,-3.55
2022-11-20T03:48:50.154Z,-3.53
2022-11-20T03:51:21.122Z,-3.51
2022-11-20T03:53:49.074Z,-3.51
2022-11-20T03:56:17.734Z,-3.48
2022-11-20T03:58:44.555Z,-3.37
2022-11-20T04:01:20.027Z,-3.36
2022-11-20T04:03:46.967Z,-3.32
2022-11-20T04:06:24.924Z,-3.29
2022-11-20T04:08:54.010Z,-3.29
2022-11-20T04:11:24.052Z,-3.27
2022-11-20T04:13:56.253Z,-3.24
2022-11-20T04:16:24.117Z,-3.21
2022-11-20T04:18:57.853Z,-3.17
2022-11-20T04:21:25.336Z,-3.12
2022-11-20T04:23:53.658Z,-3.09
2022-11-20T04:26:20.950Z,-3.04
2022-11-20T04:28:47.426Z,-3.01
2022-11-20T04:31:18.862Z,-2.98
2022-11-20T04:33:45.643Z,-2.93
2022-11-20T04:36:24.056Z,-2.91
2022-11-20T04:38:57.080Z,-2.87
2022-11-20T04:41:26.369Z,-2.82
2022-11-20T04:43:59.777Z,-2.83
2022-11-20T04:46:27.980Z,-2.81
2022-11-20T04:48:54.383Z,-2.76
2022-11-20T04:51:20.762Z,-2.79
2022-11-20T04:53:47.151Z,-2.79
2022-11-20T04:56:14.195Z,-2.81
2022-11-20T04:58:40.894Z,-2.78
2022-11-20T05:01:13.262Z,-2.76
2022-11-20T05:03:42.454Z,-2.75
2022-11-20T05:06:10.759Z,-2.74
2022-11-20T05:08:37.492Z,-2.76
2022-11-20T05:11:06.323Z,-2.75
2022-11-20T05:13:32.973Z,-2.76
2022-11-20T05:16:14.641Z,-2.75
2022-11-20T05:18:41.598Z,-2.75
2022-11-20T05:21:09.785Z,-2.74
2022-11-20T05:23:36.789Z,-2.71
2022-11-20T05:26:04.008Z,-2.74
2022-11-20T05:28:31.571Z,-2.74
2022-11-20T05:31:09.060Z,-2.73
2022-11-20T05:33:36.557Z,-2.73
2022-11-20T05:36:06.890Z,-2.73
2022-11-20T05:38:33.485Z,-2.71
2022-11-20T05:41:10.570Z,-2.70
2022-11-20T05:43:39.434Z,-2.70
2022-11-20T05:46:06.495Z,-2.74
2022-11-20T05:48:33.923Z,-2.73
2022-11-20T05:51:01.846Z,-2.72
2022-11-20T05:53:28.587Z,-2.68
2022-11-20T05:56:02.547Z,-2.67
2022-11-20T05:58:29.614Z,-2.66
2022-11-20T06:00:56.040Z,-2.62
2022-11-20T06:03:22.340Z,-2.63
2022-11-20T06:05:48.679Z,-2.62
2022-11-20T06:08:15.076Z,-2.60
2022-11-20T06:10:41.430Z,-2.64
2022-11-20T06:13:07.751Z,-2.63
2022-11-20T06:15:34.057Z,-2.64
2022-11-20T06:18:00.405Z,-2.66
2022-11-20T06:20:26.732Z,-2.69
2022-11-20T06:22:53.020Z,-2.65
2022-11-20T06:25:19.360Z,-2.68
2022-11-20T06:27:45.654Z,-2.70
2022-11-20T06:30:12.752Z,-2.69
2022-11-20T06:32:39.046Z,-2.64
2022-11-20T06:35:05.641Z,-2.68
2022-11-20T06:37:31.993Z,-2.70
2022-11-20T06:39:58.307Z,-2.75
2022-11-20T06:42:24.704Z,-2.75
2022-11-20T06:44:51.065Z,-2.83
2022-11-20T06:47:17.363Z,-2.82
2022-11-20T06:49:43.672Z,-2.86
2022-11-20T06:52:10.054Z,-2.88
2022-11-20T06:54:36.362Z,-2.89
2022-11-20T06:57:02.704Z,-2.92
2022-11-20T06:59:29.010Z,-2.88
2022-11-20T07:01:55.328Z,-2.93
2022-11-20T07:04:21.902Z,-2.93
2022-11-20T07:06:49.348Z,-2.95
2022-11-20T07:09:15.871Z,-2.97
2022-11-20T07:11:42.179Z,-3.00
2022-11-20T07:14:08.477Z,-2.98
2022-11-20T07:16:34.828Z,-3.06
2022-11-20T07:19:01.130Z,-3.05
2022-11-20T07:21:27.459Z,-3.07
2022-11-20T07:23:53.828Z,-3.08
2022-11-20T07:26:20.456Z,-3.12
2022-11-20T07:28:46.902Z,-3.13
2022-11-20T07:31:18.736Z,-3.15
2022-11-20T07:33:45.539Z,-3.12
2022-11-20T07:36:12.098Z,-3.10
2022-11-20T07:38:38.767Z,-3.07
2022-11-20T07:41:05.349Z,-3.06
2022-11-20T07:43:33.123Z,-3.04
2022-11-20T07:46:01.621Z,-3.00
2022-11-20T07:48:27.932Z,-3.00
2022-11-20T07:50:55.875Z,-2.95
2022-11-20T07:53:22.607Z,-2.95
2022-11-20T07:55:49.402Z,-2.94
2022-11-20T07:58:15.686Z,-2.93
2022-11-20T08:00:42.186Z,-2.92
2022-11-20T08:03:08.575Z,-2.93
2022-11-20T08:05:34.958Z,-2.81
2022-11-20T08:08:01.315Z,-2.84
2022-11-20T08:10:28.041Z,-2.79
2022-11-20T08:13:12.821Z,-2.81
2022-11-20T08:15:40.640Z,-2.77
2022-11-20T08:21:02.106Z,-2.61
2022-11-20T08:23:28.407Z,-2.48
2022-11-20T08:25:54.720Z,-2.35
2022-11-20T08:28:22.409Z,-2.24
2022-11-20T08:30:50.939Z,-2.15
2022-11-20T08:33:18.519Z,-1.99
2022-11-20T08:35:45.068Z,-1.89
2022-11-20T08:38:11.371Z,-1.77
2022-11-20T08:40:37.819Z,-1.66
2022-11-20T08:43:04.198Z,-1.57
2022-11-20T08:45:34.156Z,-1.40
2022-11-20T08:48:02.309Z,-1.37
2022-11-20T08:50:28.635Z,-1.28
2022-11-20T08:52:54.926Z,-1.14
2022-11-20T08:55:21.256Z,-1.08
2022-11-20T08:57:50.772Z,-1.02
2022-11-20T09:00:17.962Z,-0.87
2022-11-20T09:02:44.259Z,-0.67
2022-11-20T09:05:10.612Z,-0.54
2022-11-20T09:07:36.962Z,-0.43
2022-11-20T09:10:23.116Z,-0.30
2022-11-20T09:12:51.454Z,-0.19
2022-11-20T09:15:18.160Z,-0.07
2022-11-20T09:17:52.536Z,-0.05
2022-11-20T09:20:19.271Z,-0.04
2022-11-20T09:22:45.607Z,0.11
2022-11-20T09:25:12.026Z,0.25
2022-11-20T09:27:38.330Z,0.44
2022-11-20T09:30:05.609Z,0.66
2022-11-20T09:32:32.200Z,0.82
2022-11-20T09:34:58.512Z,0.99
2022-11-20T09:37:24.893Z,1.14
2022-11-20T09:39:51.229Z,1.19
2022-11-20T09:42:44.547Z,1.35
2022-11-20T09:45:34.843Z,1.57
2022-11-20T09:48:19.367Z,1.72
2022-11-20T09:51:00.360Z,1.66
2022-11-20T09:53:36.036Z,1.81
2022-11-20T09:56:04.876Z,1.84
2022-11-20T09:58:40.932Z,1.88
2022-11-20T10:01:24.358Z,1.86
2022-11-20T10:04:04.414Z,1.90
2022-11-20T10:06:39.139Z,1.96
2022-11-20T10:09:40.315Z,2.02
2022-11-20T10:12:33.962Z,2.13
2022-11-20T10:15:17.892Z,2.17
2022-11-20T10:18:14.202Z,2.18
2022-11-20T10:20:49.585Z,2.24
2022-11-20T10:23:28.671Z,2.35
2022-11-20T10:26:13.090Z,2.41
2022-11-20T10:29:09.481Z,2.49
2022-11-20T10:31:46.256Z,2.64
2022-11-20T10:34:25.537Z,2.82
2022-11-20T10:37:21.399Z,3.08
2022-11-20T10:40:25.343Z,3.17
2022-11-20T10:43:02.014Z,3.17
2022-11-20T10:45:43.219Z,3.15
2022-11-20T10:48:25.061Z,3.14
2022-11-20T10:51:11.680Z,3.12
2022-11-20T10:54:05.184Z,3.09
2022-11-20T10:56:48.312Z,3.14
2022-11-20T11:00:14.416Z,3.10
2022-11-20T11:02:47.195Z,3.05
2022-11-20T11:05:35.677Z,3.14
2022-11-20T11:08:01.990Z,3.14
2022-11-20T11:10:36.180Z,3.16
2022-11-20T11:13:02.771Z,3.21
2022-11-20T11:15:39.430Z,3.18
2022-11-20T11:18:06.551Z,3.20
2022-11-20T11:20:33.287Z,3.19
2022-11-20T11:23:00.555Z,3.19
2022-11-20T11:25:34.851Z,3.17
2022-11-20T11:28:04.177Z,3.20
2022-11-20T11:30:41.612Z,3.20
2022-11-20T11:33:11.911Z,3.27
2022-11-20T11:35:51.774Z,3.31
2022-11-20T11:38:28.020Z,3.35
2022-11-20T11:40:56.003Z,3.40
2022-11-20T11:43:51.643Z,3.42
2022-11-20T11:46:25.572Z,3.43
2022-11-20T11:49:11.206Z,3.49
2022-11-20T11:51:59.230Z,3.55
2022-11-20T11:54:31.321Z,3.46
2022-11-20T11:57:02.566Z,3.53
2022-11-20T11:59:53.813Z,3.54
2022-11-20T12:02:33.648Z,3.56
2022-11-20T12:05:09.712Z,3.54
2022-11-20T12:07:46.930Z,3.58
2022-11-20T12:10:19.790Z,3.58
2022-11-20T12:12:50.676Z,3.57
2022-11-20T12:15:30.959Z,3.59
2022-11-20T12:17:57.541Z,3.59
2022-11-20T12:20:29.528Z,3.55
2022-11-20T12:23:18.818Z,3.65
2022-11-20T12:25:53.447Z,3.73
2022-11-20T12:28:38.239Z,3.65
2022-11-20T12:31:16.820Z,3.70
2022-11-20T12:33:54.955Z,3.65
2022-11-20T12:36:29.159Z,3.68
2022-11-20T12:39:09.687Z,3.58
2022-11-20T12:42:40.571Z,3.60
2022-11-20T12:45:29.115Z,3.57
2022-11-20T12:48:13.582Z,3.57
2022-11-20T12:51:15.466Z,3.53
2022-11-20T12:53:57.530Z,3.54
2022-11-20T12:57:03.470Z,3.51
2022-11-20T13:00:22.320Z,3.55
2022-11-20T13:03:13.969Z,3.58
2022-11-20T13:06:10.270Z,3.61
2022-11-20T13:08:39.762Z,3.61
2022-11-20T13:11:19.578Z,3.66
2022-11-20T13:13:57.872Z,3.68
2022-11-20T13:16:30.298Z,3.74
2022-11-20T13:18:56.976Z,3.76
2022-11-20T13:21:37.122Z,3.70
2022-11-20T13:24:08.261Z,3.79
2022-11-20T13:26:34.934Z,3.82
2022-11-20T13:29:17.202Z,3.88
2022-11-20T13:31:46.691Z,3.79
2022-11-20T13:34:24.283Z,3.80
2022-11-20T13:36:54.357Z,3.78
2022-11-20T13:39:37.540Z,3.80
2022-11-20T13:42:24.341Z,3.82
2022-11-20T13:45:02.602Z,3.79
2022-11-20T13:47:30.081Z,3.95
2022-11-20T13:49:58.815Z,3.92
2022-11-20T13:52:46.690Z,3.91
2022-11-20T13:55:25.164Z,3.83
2022-11-20T13:58:04.859Z,3.81
2022-11-20T14:00:31.271Z,3.86
2022-11-20T14:03:06.728Z,3.82
2022-11-20T14:05:39.567Z,3.83
2022-11-20T14:08:11.516Z,3.88
2022-11-20T14:10:40.064Z,3.89
2022-11-20T14:13:26.645Z,3.92
2022-11-20T14:15:58.098Z,3.83
2022-11-20T14:18:27.479Z,3.84
2022-11-20T14:20:53.783Z,3.78
2022-11-20T14:23:30.244Z,3.77
2022-11-20T14:25:56.986Z,3.83
2022-11-20T14:28:29.324Z,3.76
2022-11-20T14:30:57.024Z,3.75
2022-11-20T14:33:26.286Z,3.61
2022-11-20T14:35:55.034Z,3.57
2022-11-20T14:38:29.579Z,3.55
2022-11-20T14:41:07.532Z,3.55
2022-11-20T14:43:36.774Z,3.54
2022-11-20T14:46:06.214Z,3.52
2022-11-20T14:48:40.973Z,3.47
2022-11-20T14:51:11.271Z,3.34
2022-11-20T14:53:37.691Z,3.36
2022-11-20T14:56:04.385Z,3.30
2022-11-20T14:58:34.141Z,3.18
2022-11-20T15:01:03.532Z,3.18
2022-11-20T15:03:35.592Z,3.11
2022-11-20T15:06:02.968Z,3.08
2022-11-20T15:08:29.547Z,3.04
2022-11-20T15:10:56.544Z,3.07
2022-11-20T15:13:32.938Z,3.02
2022-11-20T15:16:01.414Z,3.11
2022-11-20T15:18:30.620Z,2.99
2022-11-20T15:21:01.223Z,3.09
2022-11-20T15:23:28.723Z,3.10
2022-11-20T15:25:55.681Z,3.08
2022-11-20T15:28:28.124Z,2.92
2022-11-20T15:30:54.626Z,2.85
2022-11-20T15:33:20.971Z,2.85
2022-11-20T15:35:47.327Z,2.79
2022-11-20T15:38:14.094Z,2.75
2022-11-20T15:40:40.546Z,2.79
2022-11-20T15:43:12.972Z,2.75
2022-11-20T15:45:50.965Z,2.74
2022-11-20T15:48:21.364Z,2.81
2022-11-20T15:51:03.566Z,2.87
2022-11-20T15:53:30.361Z,2.98
2022-11-20T15:55:56.760Z,2.85
2022-11-20T15:58:24.963Z,2.90
2022-11-20T16:00:51.382Z,2.81
2022-11-20T16:03:18.454Z,2.82
2022-11-20T16:05:45.108Z,2.66
2022-11-20T16:08:12.143Z,2.66
2022-11-20T16:10:38.745Z,2.65
2022-11-20T16:13:23.462Z,2.68
2022-11-20T16:15:59.059Z,2.65
2022-11-20T16:18:25.713Z,2.65
2022-11-20T16:20:53.840Z,2.68
2022-11-20T16:23:21.226Z,2.67
2022-11-20T16:25:48.143Z,2.74
2022-11-20T16:28:18.951Z,2.65
2022-11-20T16:30:46.644Z,2.71
2022-11-20T16:33:20.553Z,2.69
2022-11-20T16:35:46.892Z,2.68
2022-11-20T16:38:13.192Z,2.73
2022-11-20T16:40:39.549Z,2.72
2022-11-20T16:43:11.957Z,2.72
2022-11-20T16:45:43.343Z,2.75
2022-11-20T16:48:15.515Z,2.70
2022-11-20T16:50:53.999Z,2.61
2022-11-20T16:53:21.485Z,2.68
2022-11-20T16:55:48.142Z,2.64
2022-11-20T16:58:15.666Z,2.67
2022-11-20T17:00:44.559Z,2.68
2022-11-20T17:03:15.102Z,2.77
2022-11-20T17:05:41.882Z,2.86
2022-11-20T17:08:08.371Z,2.77
2022-11-20T17:10:34.696Z,2.88
2022-11-20T17:13:01.292Z,2.84
2022-11-20T17:15:27.596Z,2.81
2022-11-20T17:17:53.973Z,2.76
2022-11-20T17:20:20.310Z,2.70
2022-11-20T17:22:46.646Z,2.77
2022-11-20T17:25:12.963Z,2.73
2022-11-20T17:27:39.250Z,2.71
2022-11-20T17:30:06.080Z,2.65
2022-11-20T17:32:32.405Z,2.66
2022-11-20T17:34:58.802Z,2.70
2022-11-20T17:37:25.112Z,2.85
2022-11-20T17:39:51.424Z,2.81
2022-11-20T17:42:26.993Z,2.81
2022-11-20T17:44:53.407Z,2.76
2022-11-20T17:47:19.754Z,2.78
2022-11-20T17:49:46.201Z,2.83
2022-11-20T17:52:12.532Z,2.80
2022-11-20T17:54:38.852Z,2.82
2022-11-20T17:57:25.175Z,2.88
2022-11-20T17:59:51.528Z,2.87
2022-11-20T18:02:17.840Z,2.87
2022-11-20T18:04:44.818Z,2.90
2022-11-20T18:07:11.239Z,2.94
2022-11-20T18:09:37.651Z,3.03
2022-11-20T18:12:04.253Z,3.06
2022-11-20T18:14:34.393Z,3.07
2022-11-20T18:17:07.949Z,3.11
2022-11-20T18:20:01.167Z,3.15
2022-11-20T18:22:31.704Z,3.17
2022-11-20T18:24:58.266Z,3.23
2022-11-20T18:27:24.743Z,3.28
2022-11-20T18:29:52.255Z,3.27
2022-11-20T18:32:20.636Z,3.36
2022-11-20T18:34:47.155Z,3.38
2022-11-20T18:37:16.173Z,3.45
2022-11-20T18:39:43.224Z,3.49
2022-11-20T18:42:33.088Z,3.44
2022-11-20T18:45:00.223Z,3.49
2022-11-20T18:47:30.370Z,3.46
2022-11-20T18:49:58.915Z,3.49
2022-11-20T18:52:26.938Z,3.55
2022-11-20T18:54:54.001Z,3.62
2022-11-20T18:57:22.949Z,3.68
2022-11-20T18:59:49.560Z,3.72
2022-11-20T19:02:18.547Z,3.73
2022-11-20T19:04:45.197Z,3.75
2022-11-20T19:07:12.079Z,3.71
2022-11-20T19:09:43.007Z,3.80
2022-11-20T19:12:11.345Z,3.82
2022-11-20T19:14:37.963Z,3.78
2022-11-20T19:17:06.751Z,3.82
2022-11-20T19:19:34.097Z,3.87
2022-11-20T19:22:00.491Z,3.87
2022-11-20T19:24:28.276Z,3.80
2022-11-20T19:26:56.030Z,3.85
2022-11-20T19:29:23.951Z,3.80
2022-11-20T19:31:50.546Z,3.87
2022-11-20T19:34:16.964Z,3.76
2022-11-20T19:36:45.053Z,3.78
2022-11-20T19:39:12.320Z,3.87
2022-11-20T19:41:40.139Z,3.86
2022-11-20T19:44:11.405Z,3.79
2022-11-20T19:46:39.295Z,3.79
2022-11-20T19:49:09.961Z,3.80
2022-11-20T19:51:38.490Z,3.74
2022-11-20T19:54:06.304Z,3.78
2022-11-20T19:56:33.922Z,3.73
2022-11-20T19:59:01.325Z,3.79
2022-11-20T20:01:30.718Z,3.78
2022-11-20T20:04:01.284Z,3.83
2022-11-20T20:06:28.409Z,3.80
2022-11-20T20:09:00.765Z,3.79
2022-11-20T20:11:32.425Z,3.79
2022-11-20T20:14:06.337Z,3.81
2022-11-20T20:16:32.797Z,3.90
2022-11-20T20:19:03.597Z,3.93
2022-11-20T20:21:31.747Z,3.82
2022-11-20T20:23:59.070Z,3.87
2022-11-20T20:26:27.077Z,3.88
2022-11-20T20:28:53.733Z,3.96
2022-11-20T20:31:23.607Z,3.95
2022-11-20T20:33:50.200Z,4.00
2022-11-20T20:36:18.554Z,3.96
2022-11-20T20:38:46.335Z,3.95
2022-11-20T20:41:19.701Z,3.97
2022-11-20T20:44:04.755Z,3.95
2022-11-20T20:46:31.473Z,3.93
2022-11-20T20:48:57.821Z,3.97
2022-11-20T20:51:24.388Z,3.93
2022-11-20T20:53:50.961Z,3.98
2022-11-20T20:56:17.892Z,3.92
2022-11-20T20:58:44.636Z,3.91
2022-11-20T21:01:16.988Z,3.93
2022-11-20T21:03:43.588Z,3.94
2022-11-20T21:06:11.248Z,3.96
2022-11-20T21:08:40.633Z,3.94
2022-11-20T21:11:10.632Z,3.92
2022-11-20T21:13:38.576Z,3.94
2022-11-20T21:16:06.041Z,3.96
2022-11-20T21:18:33.191Z,3.96
2022-11-20T21:21:18.297Z,3.95
2022-11-20T21:23:48.051Z,4.00
2022-11-20T21:26:15.953Z,3.91
2022-11-20T21:28:42.410Z,3.90
2022-11-20T21:31:15.114Z,3.94
2022-11-20T21:33:46.397Z,3.87
2022-11-20T21:36:20.804Z,3.83
2022-11-20T21:38:48.289Z,3.82
2022-11-20T21:41:15.497Z,3.79
2022-11-20T21:43:42.857Z,3.79
2022-11-20T21:46:11.648Z,3.78
2022-11-20T21:48:42.017Z,3.74
2022-11-20T21:51:13.977Z,3.67
2022-11-20T21:53:40.868Z,3.66
2022-11-20T21:56:08.883Z,3.70
2022-11-20T21:58:36.232Z,3.65
2022-11-20T22:01:14.709Z,3.71
2022-11-20T22:03:42.179Z,3.63
2022-11-20T22:06:09.984Z,3.58
2022-11-20T22:08:37.717Z,3.50
2022-11-20T22:11:15.194Z,3.39
2022-11-20T22:14:00.368Z,3.37
2022-11-20T22:16:26.869Z,3.28
2022-11-20T22:18:55.636Z,3.23
2022-11-20T22:21:27.614Z,3.20
2022-11-20T22:23:55.144Z,3.11
2022-11-20T22:26:26.893Z,3.07
2022-11-20T22:28:57.944Z,2.95
2022-11-20T22:31:26.404Z,2.91
2022-11-20T22:33:53.567Z,2.87
2022-11-20T22:36:22.645Z,2.84
2022-11-20T22:38:49.345Z,2.89
2022-11-20T22:41:18.815Z,2.90
2022-11-20T22:43:46.211Z,2.88
2022-11-20T22:46:16.969Z,2.93
2022-11-20T22:48:57.258Z,2.87
2022-11-20T22:51:29.100Z,2.87
2022-11-20T22:53:55.657Z,2.89
2022-11-20T22:56:22.333Z,2.87
2022-11-20T22:58:50.251Z,2.91
2022-11-20T23:01:18.774Z,2.91
2022-11-20T23:03:48.208Z,2.89
2022-11-20T23:06:15.675Z,2.88
2022-11-20T23:08:42.701Z,2.83
2022-11-20T23:11:12.141Z,2.85
2022-11-20T23:13:39.361Z,2.87
2022-11-20T23:16:08.855Z,2.89
2022-11-20T23:18:35.760Z,2.90
2022-11-20T23:21:06.812Z,2.89
2022-11-20T23:23:33.198Z,2.89
2022-11-20T23:26:01.448Z,2.88
2022-11-20T23:28:27.784Z,2.86
2022-11-20T23:30:54.116Z,2.83
2022-11-20T23:33:20.444Z,2.81
2022-11-20T23:35:47.311Z,2.84
2022-11-20T23:38:13.676Z,2.82
2022-11-20T23:40:41.441Z,2.79
2022-11-20T23:43:16.668Z,2.75
2022-11-20T23:45:44.426Z,2.78
2022-11-20T23:48:11.185Z,2.77
2022-11-20T23:50:37.783Z,2.77
2022-11-20T23:53:04.852Z,2.72
2022-11-20T23:55:31.611Z,2.69
2022-11-20T23:57:58.261Z,2.64
